createdAt,value
2018-03-21T00:00:22.178Z,89.37
2018-03-21T00:02:50.570Z,64.93
2018-03-21T00:05:18.952Z,84.30
2018-03-21T00:07:47.380Z,92.17
2018-03-21T00:10:15.760Z,96.30
2018-03-21T00:12:44.270Z,92.60
2018-03-21T00:15:12.644Z,94.00
2018-03-21T00:17:41.073Z,76.20
2018-03-21T00:34:58.793Z,90.47
2018-03-21T00:37:27.217Z,89.93
2018-03-21T00:39:55.606Z,87.90
2018-03-21T00:42:24.020Z,94.13
2018-03-21T00:44:52.429Z,94.10
2018-03-21T00:47:20.808Z,91.63
2018-03-21T00:49:49.168Z,83.37
2018-03-21T00:52:17.578Z,80.03
2018-03-21T00:54:45.973Z,83.60
2018-03-21T00:57:14.448Z,85.00
2018-03-21T00:59:42.858Z,73.10
2018-03-21T01:02:11.232Z,78.83
2018-03-21T01:04:39.685Z,73.17
2018-03-21T01:07:08.105Z,63.00
2018-03-21T01:09:36.528Z,62.63
2018-03-21T01:12:04.904Z,55.63
2018-03-21T01:14:33.376Z,52.73
2018-03-21T01:17:01.747Z,59.57
2018-03-21T01:19:30.113Z,59.17
2018-03-21T01:21:58.516Z,50.53
2018-03-21T01:24:26.903Z,46.23
2018-03-21T01:26:55.326Z,49.00
2018-03-21T01:29:23.717Z,47.00
2018-03-21T01:31:52.122Z,53.53
2018-03-21T01:34:20.496Z,50.97
2018-03-21T01:36:48.946Z,53.13
2018-03-21T01:39:17.393Z,53.63
2018-03-21T01:41:45.830Z,52.87
2018-03-21T01:44:14.255Z,49.20
2018-03-21T01:46:42.704Z,53.77
2018-03-21T01:49:11.140Z,48.33
2018-03-21T01:51:39.538Z,47.27
2018-03-21T01:54:07.911Z,46.37
2018-03-21T01:56:36.324Z,48.77
2018-03-21T01:59:04.772Z,46.07
2018-03-21T02:01:33.208Z,77.53
2018-03-21T02:04:01.600Z,50.43
2018-03-21T02:06:30.014Z,44.37
2018-03-21T02:08:58.361Z,39.73
2018-03-21T02:11:26.794Z,40.70
2018-03-21T02:13:55.240Z,43.60
2018-03-21T02:16:23.649Z,40.70
2018-03-21T02:18:52.051Z,40.53
2018-03-21T02:21:20.484Z,49.43
2018-03-21T02:23:49.272Z,45.87
2018-03-21T02:26:17.739Z,50.07
2018-03-21T02:28:46.141Z,58.57
2018-03-21T02:31:14.525Z,54.13
2018-03-21T02:33:42.992Z,54.37
2018-03-21T02:36:11.374Z,52.00
2018-03-21T02:38:39.802Z,62.23
2018-03-21T02:41:08.202Z,54.70
2018-03-21T02:43:36.593Z,50.43
2018-03-21T02:46:04.959Z,55.33
2018-03-21T02:48:33.371Z,59.07
2018-03-21T02:51:01.737Z,57.50
2018-03-21T02:53:30.150Z,57.17
2018-03-21T02:55:58.529Z,54.40
2018-03-21T02:58:26.938Z,60.00
2018-03-21T03:00:55.386Z,57.13
2018-03-21T03:03:23.785Z,61.60
2018-03-21T03:05:52.242Z,54.53
2018-03-21T03:08:20.984Z,54.60
2018-03-21T03:10:49.444Z,53.37
2018-03-21T03:13:17.838Z,65.60
2018-03-21T03:15:46.213Z,51.23
2018-03-21T03:18:14.652Z,50.90
2018-03-21T03:20:43.030Z,58.93
2018-03-21T03:23:11.424Z,58.07
2018-03-21T03:25:39.828Z,61.00
2018-03-21T03:28:08.272Z,68.77
2018-03-21T03:30:36.637Z,63.77
2018-03-21T03:33:05.009Z,62.07
2018-03-21T03:35:33.432Z,62.73
2018-03-21T03:38:01.861Z,61.47
2018-03-21T03:40:30.236Z,66.27
2018-03-21T03:42:58.654Z,62.90
2018-03-21T03:45:27.068Z,88.67
2018-03-21T03:47:55.480Z,72.57
2018-03-21T03:50:23.861Z,67.43
2018-03-21T03:52:52.254Z,78.27
2018-03-21T03:55:20.653Z,92.17
2018-03-21T03:57:49.044Z,95.53
2018-03-21T04:00:17.456Z,88.43
2018-03-21T04:02:45.835Z,96.07
2018-03-21T04:05:14.241Z,86.80
2018-03-21T04:07:42.681Z,103.63
2018-03-21T04:10:11.136Z,103.70
2018-03-21T04:12:39.582Z,98.83
2018-03-21T04:15:07.960Z,96.87
2018-03-21T04:17:36.405Z,87.67
2018-03-21T04:20:04.893Z,98.97
2018-03-21T04:22:33.269Z,92.83
2018-03-21T04:25:01.685Z,79.13
2018-03-21T04:27:30.069Z,83.73
2018-03-21T04:29:58.472Z,94.97
2018-03-21T04:32:26.846Z,99.43
2018-03-21T04:34:55.282Z,99.07
2018-03-21T04:37:23.689Z,102.33
2018-03-21T04:39:52.077Z,107.80
2018-03-21T04:42:20.516Z,101.97
2018-03-21T04:44:48.957Z,93.27
2018-03-21T04:47:17.389Z,95.40
2018-03-21T04:49:45.906Z,105.63
2018-03-21T04:52:14.389Z,101.60
2018-03-21T04:54:42.855Z,104.53
2018-03-21T04:57:11.269Z,99.83
2018-03-21T04:59:39.689Z,100.60
2018-03-21T05:02:08.132Z,93.30
2018-03-21T05:04:36.606Z,104.83
2018-03-21T05:07:05.053Z,105.43
2018-03-21T05:09:33.517Z,109.57
2018-03-21T05:12:01.901Z,109.60
2018-03-21T05:14:30.299Z,85.53
2018-03-21T05:16:58.716Z,86.70
2018-03-21T05:19:27.083Z,90.83
2018-03-21T05:21:55.538Z,87.20
2018-03-21T05:24:23.943Z,97.27
2018-03-21T05:26:52.363Z,85.13
2018-03-21T05:29:20.797Z,82.90
2018-03-21T05:31:49.313Z,88.77
2018-03-21T05:34:17.700Z,93.80
2018-03-21T05:36:46.169Z,79.97
2018-03-21T05:39:14.620Z,73.83
2018-03-21T05:41:43.085Z,75.67
2018-03-21T05:44:11.612Z,74.07
2018-03-21T05:46:40.017Z,79.10
2018-03-21T05:49:08.461Z,100.40
2018-03-21T05:51:37.848Z,86.17
2018-03-21T05:54:06.316Z,91.50
2018-03-21T05:56:34.916Z,92.53
2018-03-21T05:59:03.463Z,88.00
2018-03-21T06:01:31.893Z,89.17
2018-03-21T06:04:00.322Z,83.70
2018-03-21T06:06:28.681Z,83.20
2018-03-21T06:08:57.106Z,87.93
2018-03-21T06:11:25.481Z,94.50
2018-03-21T06:13:53.844Z,96.83
2018-03-21T06:16:22.325Z,77.07
2018-03-21T06:18:50.746Z,88.47
2018-03-21T06:21:19.169Z,93.03
2018-03-21T06:23:47.815Z,95.47
2018-03-21T06:26:16.194Z,85.37
2018-03-21T06:28:44.769Z,79.63
2018-03-21T06:31:13.205Z,91.47
2018-03-21T06:33:41.940Z,91.93
2018-03-21T06:36:10.384Z,98.47
2018-03-21T06:38:38.869Z,109.97
2018-03-21T06:41:07.489Z,98.47
2018-03-21T06:43:35.908Z,96.00
2018-03-21T06:46:04.290Z,89.63
2018-03-21T06:48:32.724Z,77.90
2018-03-21T06:51:01.130Z,83.33
2018-03-21T06:53:29.760Z,85.33
2018-03-21T06:55:58.160Z,82.67
2018-03-21T06:58:26.633Z,77.37
2018-03-21T07:00:55.066Z,77.63
2018-03-21T07:03:23.478Z,87.67
2018-03-21T07:05:51.904Z,73.97
2018-03-21T07:08:20.289Z,67.00
2018-03-21T07:10:48.739Z,55.83
2018-03-21T07:13:17.209Z,51.17
2018-03-21T07:15:57.351Z,69.23
2018-03-21T07:18:25.756Z,67.27
2018-03-21T07:20:54.174Z,72.17
2018-03-21T07:23:22.628Z,84.30
2018-03-21T07:25:51.065Z,73.27
2018-03-21T07:28:19.468Z,75.60
2018-03-21T07:30:47.888Z,83.33
2018-03-21T07:33:16.298Z,80.70
2018-03-21T07:35:44.700Z,88.67
2018-03-21T07:38:13.069Z,77.97
2018-03-21T07:40:41.503Z,83.77
2018-03-21T07:43:09.913Z,70.80
2018-03-21T07:45:38.276Z,69.37
2018-03-21T07:48:06.732Z,59.50
2018-03-21T07:50:35.192Z,56.73
2018-03-21T07:53:03.561Z,50.40
2018-03-21T07:55:31.987Z,51.97
2018-03-21T07:58:00.371Z,44.23
2018-03-21T08:00:28.817Z,43.37
2018-03-21T08:02:57.321Z,42.83
2018-03-21T08:05:25.780Z,52.07
2018-03-21T08:07:54.171Z,38.20
2018-03-21T08:10:22.540Z,44.27
2018-03-21T08:12:50.941Z,45.47
2018-03-21T08:15:19.351Z,50.83
2018-03-21T08:17:47.725Z,37.77
2018-03-21T08:20:16.156Z,40.40
2018-03-21T08:22:44.521Z,39.00
2018-03-21T08:25:12.965Z,37.67
2018-03-21T08:27:41.392Z,37.37
2018-03-21T08:30:09.812Z,38.40
2018-03-21T08:32:38.230Z,37.33
2018-03-21T08:35:06.652Z,36.10
2018-03-21T08:37:35.064Z,35.87
2018-03-21T08:40:03.460Z,36.47
2018-03-21T08:42:31.881Z,40.23
2018-03-21T08:45:00.524Z,37.13
2018-03-21T08:47:28.929Z,41.03
2018-03-21T08:49:57.372Z,36.57
2018-03-21T08:52:25.740Z,39.57
2018-03-21T08:54:54.108Z,36.17
2018-03-21T08:57:22.544Z,29.83
2018-03-21T08:59:50.944Z,36.90
2018-03-21T09:02:19.324Z,30.20
2018-03-21T09:04:47.738Z,40.70
2018-03-21T09:07:16.113Z,39.47
2018-03-21T09:09:44.661Z,28.77
2018-03-21T09:12:13.114Z,34.37
2018-03-21T09:14:41.496Z,32.47
2018-03-21T09:17:09.873Z,32.60
2018-03-21T09:19:38.309Z,38.37
2018-03-21T09:22:06.727Z,33.07
2018-03-21T09:24:35.149Z,36.37
2018-03-21T09:27:03.557Z,40.30
2018-03-21T09:29:32.065Z,54.77
2018-03-21T09:32:00.470Z,35.83
2018-03-21T09:34:28.924Z,37.63
2018-03-21T09:36:57.337Z,28.67
2018-03-21T09:39:25.705Z,38.40
2018-03-21T09:41:54.077Z,6.17
2018-03-21T09:44:22.476Z,7.10
2018-03-21T09:46:50.841Z,11.60
2018-03-21T09:49:19.193Z,7.43
2018-03-21T09:51:47.597Z,16.17
2018-03-21T09:54:16.072Z,24.60
2018-03-21T09:56:44.580Z,36.33
2018-03-21T09:59:12.963Z,41.20
2018-03-21T10:01:41.399Z,47.20
2018-03-21T10:04:09.784Z,37.63
2018-03-21T10:06:38.204Z,37.73
2018-03-21T10:09:06.660Z,37.07
2018-03-21T10:11:35.118Z,41.10
2018-03-21T10:14:03.527Z,37.27
2018-03-21T10:16:31.936Z,36.07
2018-03-21T10:19:00.350Z,35.77
2018-03-21T10:21:28.936Z,33.97
2018-03-21T10:23:57.380Z,31.07
2018-03-21T10:26:25.744Z,23.43
2018-03-21T10:28:54.206Z,25.00
2018-03-21T10:31:22.576Z,27.20
2018-03-21T10:33:50.976Z,32.77
2018-03-21T10:36:19.416Z,39.90
2018-03-21T10:38:47.829Z,39.57
2018-03-21T10:41:16.245Z,37.07
2018-03-21T10:43:44.660Z,42.00
2018-03-21T10:46:13.032Z,41.93
2018-03-21T10:48:41.388Z,32.03
2018-03-21T10:51:09.795Z,32.80
2018-03-21T10:53:38.252Z,31.63
2018-03-21T10:56:06.629Z,29.57
2018-03-21T10:58:35.060Z,29.60
2018-03-21T11:04:02.948Z,31.47
2018-03-21T11:06:31.480Z,38.70
2018-03-21T11:08:59.808Z,36.50
2018-03-21T11:11:28.217Z,41.87
2018-03-21T11:13:56.584Z,34.20
2018-03-21T11:16:25.148Z,29.00
2018-03-21T11:18:53.568Z,27.83
2018-03-21T11:21:22.088Z,27.33
2018-03-21T11:23:50.469Z,27.13
2018-03-21T11:26:18.916Z,25.17
2018-03-21T11:28:48.351Z,22.70
2018-03-21T11:31:17.128Z,26.70
2018-03-21T11:33:45.838Z,25.67
2018-03-21T11:36:14.600Z,26.93
2018-03-21T11:38:43.056Z,22.40
2018-03-21T11:43:47.348Z,23.57
2018-03-21T11:46:15.884Z,22.93
2018-03-21T11:48:44.321Z,18.87
2018-03-21T11:51:12.730Z,19.43
2018-03-21T11:53:41.083Z,19.90
2018-03-21T11:56:09.544Z,22.90
2018-03-21T11:58:37.921Z,23.17
2018-03-21T12:01:06.342Z,23.57
2018-03-21T12:03:34.934Z,27.07
2018-03-21T12:06:03.403Z,22.87
2018-03-21T12:08:31.826Z,20.30
2018-03-21T12:11:00.241Z,22.93
2018-03-21T12:13:28.632Z,16.63
2018-03-21T12:15:56.997Z,18.50
2018-03-21T12:18:25.640Z,2.63
2018-03-21T12:20:54.010Z,17.90
2018-03-21T12:23:23.073Z,22.53
2018-03-21T12:25:51.544Z,9.23
2018-03-21T12:28:19.977Z,31.23
2018-03-21T12:30:48.416Z,37.13
2018-03-21T12:33:16.781Z,35.90
2018-03-21T12:35:45.152Z,33.23
2018-03-21T12:38:13.586Z,34.07
2018-03-21T12:40:42.233Z,29.37
2018-03-21T12:43:10.637Z,30.53
2018-03-21T12:45:39.044Z,26.90
2018-03-21T12:48:07.409Z,29.60
2018-03-21T12:50:35.816Z,32.17
2018-03-21T12:53:04.230Z,32.53
2018-03-21T12:55:32.654Z,29.20
2018-03-21T12:58:01.030Z,27.07
2018-03-21T13:00:29.488Z,26.83
2018-03-21T13:02:57.873Z,24.67
2018-03-21T13:05:26.286Z,21.87
2018-03-21T13:07:54.656Z,24.70
2018-03-21T13:10:23.080Z,30.67
2018-03-21T13:12:51.504Z,23.53
2018-03-21T13:15:19.904Z,25.03
2018-03-21T13:17:48.317Z,27.50
2018-03-21T13:20:16.696Z,32.13
2018-03-21T13:22:45.132Z,24.87
2018-03-21T13:25:13.536Z,22.90
2018-03-21T13:27:41.908Z,31.07
2018-03-21T13:30:10.371Z,30.63
2018-03-21T13:32:38.784Z,30.07
2018-03-21T13:35:07.148Z,31.47
2018-03-21T13:37:35.551Z,29.63
2018-03-21T13:40:03.964Z,28.07
2018-03-21T13:42:32.353Z,32.40
2018-03-21T13:45:00.782Z,32.50
2018-03-21T13:47:29.207Z,28.80
2018-03-21T13:49:57.628Z,28.43
2018-03-21T13:52:26.000Z,28.50
2018-03-21T13:54:54.447Z,32.77
2018-03-21T13:57:22.837Z,30.23
2018-03-21T13:59:51.249Z,29.73
2018-03-21T14:02:19.624Z,30.83
2018-03-21T14:04:48.207Z,33.87
2018-03-21T14:07:16.588Z,32.80
2018-03-21T14:09:45.168Z,34.37
2018-03-21T14:12:13.596Z,20.03
2018-03-21T14:14:41.968Z,27.00
2018-03-21T14:17:10.393Z,31.10
2018-03-21T14:19:38.797Z,32.43
2018-03-21T14:22:07.241Z,21.97
2018-03-21T14:24:35.653Z,25.63
2018-03-21T14:27:04.129Z,27.57
2018-03-21T14:29:32.553Z,26.13
2018-03-21T14:32:00.957Z,28.40
2018-03-21T14:34:29.365Z,25.63
2018-03-21T14:36:57.740Z,30.87
2018-03-21T14:39:26.171Z,24.47
2018-03-21T14:41:54.581Z,25.40
2018-03-21T14:44:22.952Z,26.63
2018-03-21T14:46:51.615Z,27.97
2018-03-21T14:49:20.013Z,25.47
2018-03-21T14:51:48.379Z,23.47
2018-03-21T14:54:16.800Z,21.57
2018-03-21T14:56:45.199Z,25.63
2018-03-21T14:59:13.601Z,28.43
2018-03-21T15:01:42.011Z,21.37
2018-03-21T15:04:10.386Z,27.80
2018-03-21T15:06:38.821Z,30.37
2018-03-21T15:09:07.208Z,28.63
2018-03-21T15:11:36.349Z,30.57
2018-03-21T15:14:04.768Z,26.83
2018-03-21T15:16:33.156Z,29.10
2018-03-21T15:19:01.586Z,24.00
2018-03-21T15:21:30.045Z,25.43
2018-03-21T15:23:58.576Z,25.63
2018-03-21T15:26:27.005Z,24.27
2018-03-21T15:28:55.372Z,25.07
2018-03-21T15:31:23.753Z,26.80
2018-03-21T15:33:52.185Z,24.77
2018-03-21T15:36:20.680Z,24.80
2018-03-21T15:38:49.179Z,23.53
2018-03-21T15:41:17.725Z,26.03
2018-03-21T15:43:46.149Z,24.70
2018-03-21T15:46:14.521Z,25.37
2018-03-21T15:48:42.898Z,21.43
2018-03-21T15:51:11.440Z,24.53
2018-03-21T15:53:39.773Z,24.97
2018-03-21T15:56:08.202Z,21.63
2018-03-21T15:58:36.672Z,18.37
2018-03-21T16:01:05.076Z,22.37
2018-03-21T16:03:33.457Z,23.20
2018-03-21T16:06:01.886Z,18.80
2018-03-21T16:08:30.281Z,24.13
2018-03-21T16:10:58.673Z,24.97
2018-03-21T16:13:27.081Z,22.97
2018-03-21T16:15:55.494Z,26.50
2018-03-21T16:18:23.881Z,24.80
2018-03-21T16:20:52.290Z,20.37
2018-03-21T16:23:20.704Z,14.97
2018-03-21T16:25:49.215Z,21.03
2018-03-21T16:28:17.580Z,22.20
2018-03-21T16:30:46.077Z,19.03
2018-03-21T16:33:14.597Z,21.03
2018-03-21T16:35:43.133Z,22.00
2018-03-21T16:38:11.602Z,18.10
2018-03-21T16:40:39.960Z,25.27
2018-03-21T16:43:08.406Z,22.73
2018-03-21T16:45:36.802Z,23.73
2018-03-21T16:48:05.228Z,23.27
2018-03-21T16:50:33.758Z,25.93
2018-03-21T16:53:02.180Z,23.23
2018-03-21T16:55:30.581Z,27.67
2018-03-21T16:57:59.543Z,38.87
2018-03-21T17:00:27.981Z,23.17
2018-03-21T17:02:56.453Z,31.97
2018-03-21T17:05:24.897Z,25.63
2018-03-21T17:07:53.261Z,19.93
2018-03-21T17:10:21.756Z,28.80
2018-03-21T17:12:50.164Z,19.63
2018-03-21T17:15:18.640Z,21.87
2018-03-21T17:17:47.000Z,26.67
2018-03-21T17:20:15.368Z,30.23
2018-03-21T17:22:43.797Z,19.37
2018-03-21T17:25:12.184Z,24.13
2018-03-21T17:27:40.581Z,22.13
2018-03-21T17:30:09.045Z,26.20
2018-03-21T17:32:38.162Z,24.37
2018-03-21T17:35:06.627Z,19.57
2018-03-21T17:37:35.468Z,22.87
2018-03-21T17:40:04.013Z,35.40
2018-03-21T17:42:32.511Z,21.90
2018-03-21T17:45:00.892Z,21.27
2018-03-21T17:47:29.334Z,22.53
2018-03-21T17:49:58.150Z,23.60
2018-03-21T17:52:26.657Z,22.83
2018-03-21T17:54:56.076Z,21.17
2018-03-21T17:57:25.714Z,27.27
2018-03-21T17:59:54.928Z,29.50
2018-03-21T18:02:24.137Z,27.67
2018-03-21T18:04:52.591Z,22.60
2018-03-21T18:07:21.685Z,27.83
2018-03-21T18:09:50.220Z,26.80
2018-03-21T18:12:18.581Z,31.17
2018-03-21T18:14:46.995Z,29.20
2018-03-21T18:17:15.408Z,34.50
2018-03-21T18:19:43.900Z,28.33
2018-03-21T18:22:12.324Z,30.07
2018-03-21T18:24:40.712Z,28.13
2018-03-21T18:27:09.169Z,31.47
2018-03-21T18:29:37.561Z,28.93
2018-03-21T18:32:06.017Z,31.63
2018-03-21T18:34:34.448Z,25.50
2018-03-21T18:37:02.875Z,30.63
2018-03-21T18:39:31.440Z,28.83
2018-03-21T18:41:59.808Z,36.00
2018-03-21T18:44:28.224Z,33.57
2018-03-21T18:46:57.040Z,31.23
2018-03-21T18:49:25.600Z,31.13
2018-03-21T18:51:53.965Z,31.80
2018-03-21T18:54:22.393Z,34.43
2018-03-21T18:56:50.830Z,29.73
2018-03-21T18:59:19.469Z,33.93
2018-03-21T19:01:48.117Z,36.40
2018-03-21T19:04:16.515Z,36.57
2018-03-21T19:06:44.894Z,34.97
2018-03-21T19:09:13.441Z,34.57
2018-03-21T19:11:41.841Z,33.23
2018-03-21T19:14:10.279Z,37.43
2018-03-21T19:16:38.651Z,38.63
2018-03-21T19:19:07.096Z,37.73
2018-03-21T19:21:35.536Z,35.40
2018-03-21T19:24:04.076Z,33.37
2018-03-21T19:26:32.445Z,33.93
2018-03-21T19:29:00.866Z,32.33
2018-03-21T19:31:29.244Z,30.97
2018-03-21T19:33:57.691Z,36.60
2018-03-21T19:36:26.045Z,34.90
2018-03-21T19:38:54.493Z,36.93
2018-03-21T19:41:22.962Z,36.93
2018-03-21T19:43:51.445Z,31.93
2018-03-21T19:46:19.853Z,59.77
2018-03-21T19:48:48.249Z,44.43
2018-03-21T19:51:16.701Z,51.93
2018-03-21T19:53:45.140Z,56.63
2018-03-21T19:56:13.518Z,65.43
2018-03-21T19:58:41.929Z,51.17
2018-03-21T20:01:10.349Z,61.60
2018-03-21T20:03:38.737Z,60.30
2018-03-21T20:06:07.157Z,53.83
2018-03-21T20:08:35.596Z,56.47
2018-03-21T20:11:04.020Z,47.50
2018-03-21T20:13:32.459Z,55.67
2018-03-21T20:16:00.925Z,59.47
2018-03-21T20:18:29.341Z,45.93
2018-03-21T20:20:57.754Z,52.17
2018-03-21T20:23:26.236Z,42.63
2018-03-21T20:25:54.664Z,51.60
2018-03-21T20:28:23.056Z,51.07
2018-03-21T20:30:51.472Z,47.33
2018-03-21T20:33:19.865Z,50.63
2018-03-21T20:35:49.068Z,53.90
2018-03-21T20:38:17.441Z,45.40
2018-03-21T20:40:45.832Z,49.93
2018-03-21T20:43:14.262Z,49.37
2018-03-21T20:45:42.677Z,48.13
2018-03-21T20:48:11.098Z,50.60
2018-03-21T20:50:39.508Z,47.63
2018-03-21T20:53:07.929Z,54.27
2018-03-21T20:55:36.304Z,43.47
2018-03-21T20:58:04.775Z,57.27
2018-03-21T21:00:33.237Z,51.07
2018-03-21T21:03:01.610Z,47.23
2018-03-21T21:05:30.079Z,50.93
2018-03-21T21:07:58.473Z,46.33
2018-03-21T21:10:26.887Z,45.93
2018-03-21T21:12:55.296Z,49.43
2018-03-21T21:15:23.713Z,46.13
2018-03-21T21:17:52.116Z,42.83
2018-03-21T21:20:20.505Z,41.80
2018-03-21T21:22:48.947Z,43.40
2018-03-21T21:25:17.389Z,39.70
2018-03-21T21:27:45.772Z,40.30
2018-03-21T21:30:14.193Z,43.30
2018-03-21T21:32:42.608Z,28.33
2018-03-21T21:35:10.993Z,34.97
2018-03-21T21:37:39.592Z,35.77
2018-03-21T21:40:07.998Z,30.10
2018-03-21T21:42:36.436Z,36.73
2018-03-21T21:45:04.802Z,31.93
2018-03-21T21:47:33.246Z,35.67
2018-03-21T21:50:01.679Z,33.37
2018-03-21T21:52:30.089Z,39.97
2018-03-21T21:54:58.587Z,31.63
2018-03-21T21:57:27.052Z,32.90
2018-03-21T21:59:55.469Z,28.00
2018-03-21T22:02:23.941Z,31.77
2018-03-21T22:04:52.280Z,30.13
2018-03-21T22:07:20.657Z,28.97
2018-03-21T22:09:49.079Z,26.43
2018-03-21T22:12:23.080Z,28.63
2018-03-21T22:14:51.450Z,30.43
2018-03-21T22:17:19.822Z,29.77
2018-03-21T22:19:48.239Z,23.90
2018-03-21T22:22:16.959Z,31.17
2018-03-21T22:24:45.339Z,29.80
2018-03-21T22:27:13.767Z,31.40
2018-03-21T22:29:42.197Z,28.37
2018-03-21T22:32:10.628Z,35.47
2018-03-21T22:34:39.042Z,30.20
2018-03-21T22:37:07.429Z,26.77
2018-03-21T22:39:36.176Z,28.67
2018-03-21T22:42:04.610Z,29.20
2018-03-21T22:44:32.997Z,26.67
2018-03-21T22:47:01.400Z,29.47
2018-03-21T22:49:29.818Z,29.87
2018-03-21T22:51:58.220Z,31.13
2018-03-21T22:54:26.721Z,32.77
2018-03-21T22:56:55.040Z,25.20
2018-03-21T22:59:23.405Z,27.93
2018-03-21T23:01:51.838Z,32.73
2018-03-21T23:04:20.281Z,28.70
2018-03-21T23:06:48.675Z,29.20
2018-03-21T23:09:17.120Z,26.83
2018-03-21T23:11:45.513Z,26.43
2018-03-21T23:14:13.978Z,29.33
2018-03-21T23:16:42.343Z,29.47
2018-03-21T23:19:10.768Z,28.30
2018-03-21T23:21:39.255Z,30.40
2018-03-21T23:24:07.673Z,24.40
2018-03-21T23:26:36.075Z,31.20
2018-03-21T23:29:04.509Z,32.97
2018-03-21T23:31:32.937Z,29.23
2018-03-21T23:34:01.353Z,35.00
2018-03-21T23:36:29.781Z,35.17
2018-03-21T23:38:58.206Z,44.17
2018-03-21T23:41:26.666Z,38.03
2018-03-21T23:43:55.084Z,50.13
2018-03-21T23:46:23.501Z,49.37
2018-03-21T23:48:51.905Z,55.53
2018-03-21T23:51:20.310Z,52.23
2018-03-21T23:53:48.804Z,54.90
2018-03-21T23:56:17.221Z,52.90
2018-03-21T23:58:45.637Z,49.60
